createdAt,value
2018-07-31T00:00:16.681Z,1015.78
2018-07-31T00:00:42.255Z,1015.8
2018-07-31T00:01:07.833Z,1015.79
2018-07-31T00:01:33.422Z,1015.8
2018-07-31T00:01:58.992Z,1015.78
2018-07-31T00:02:24.567Z,1015.75
2018-07-31T00:02:50.143Z,1015.8
2018-07-31T00:03:15.724Z,1015.8
2018-07-31T00:03:41.317Z,1015.81
2018-07-31T00:04:06.888Z,1015.8
2018-07-31T00:04:32.455Z,1015.75
2018-07-31T00:04:58.020Z,1015.77
2018-07-31T00:05:23.599Z,1015.77
2018-07-31T00:05:49.184Z,1015.75
2018-07-31T00:06:14.750Z,1015.75
2018-07-31T00:06:40.332Z,1015.72
2018-07-31T00:07:05.895Z,1015.74
2018-07-31T00:07:31.478Z,1015.71
2018-07-31T00:07:57.040Z,1015.72
2018-07-31T00:08:22.613Z,1015.69
2018-07-31T00:08:48.198Z,1015.68
2018-07-31T00:09:13.784Z,1015.68
2018-07-31T00:09:39.359Z,1015.65
2018-07-31T00:10:04.955Z,1015.65
2018-07-31T00:10:30.555Z,1015.68
2018-07-31T00:10:56.096Z,1015.66
2018-07-31T00:11:21.683Z,1015.7
2018-07-31T00:11:47.264Z,1015.66
2018-07-31T00:12:12.837Z,1015.68
2018-07-31T00:12:38.416Z,1015.65
2018-07-31T00:13:04.005Z,1015.65
2018-07-31T00:13:29.572Z,1015.61
2018-07-31T00:13:55.153Z,1015.64
2018-07-31T00:14:20.732Z,1015.63
2018-07-31T00:14:46.308Z,1015.65
2018-07-31T00:15:11.912Z,1015.57
2018-07-31T00:15:37.483Z,1015.61
2018-07-31T00:16:03.069Z,1015.54
2018-07-31T00:16:28.635Z,1015.57
2018-07-31T00:16:54.210Z,1015.59
2018-07-31T00:17:19.773Z,1015.58
2018-07-31T00:17:45.348Z,1015.58
2018-07-31T00:18:10.932Z,1015.57
2018-07-31T00:18:36.499Z,1015.59
2018-07-31T00:19:02.086Z,1015.54
2018-07-31T00:19:27.666Z,1015.58
2018-07-31T00:19:53.225Z,1015.55
2018-07-31T00:20:18.810Z,1015.55
2018-07-31T00:20:44.391Z,1015.49
2018-07-31T00:21:09.956Z,1015.52
2018-07-31T00:21:35.538Z,1015.56
2018-07-31T00:22:01.096Z,1015.52
2018-07-31T00:22:26.667Z,1015.54
2018-07-31T00:22:52.256Z,1015.53
2018-07-31T00:23:17.846Z,1015.52
2018-07-31T00:23:43.432Z,1015.53
2018-07-31T00:24:09.016Z,1015.5
2018-07-31T00:24:34.596Z,1015.5
2018-07-31T00:25:00.185Z,1015.51
2018-07-31T00:25:25.758Z,1015.51
2018-07-31T00:25:51.353Z,1015.52
2018-07-31T00:26:16.927Z,1015.49
2018-07-31T00:26:42.500Z,1015.54
2018-07-31T00:27:08.079Z,1015.51
2018-07-31T00:27:33.654Z,1015.49
2018-07-31T00:27:59.239Z,1015.49
2018-07-31T00:28:24.806Z,1015.51
2018-07-31T00:28:50.396Z,1015.53
2018-07-31T00:29:15.981Z,1015.48
2018-07-31T00:29:41.548Z,1015.51
2018-07-31T00:30:07.128Z,1015.49
2018-07-31T00:30:32.711Z,1015.48
2018-07-31T00:30:58.280Z,1015.5
2018-07-31T00:31:23.850Z,1015.49
2018-07-31T00:31:49.429Z,1015.5
2018-07-31T00:32:15.030Z,1015.47
2018-07-31T00:32:40.600Z,1015.48
2018-07-31T00:33:06.170Z,1015.49
2018-07-31T00:33:31.755Z,1015.45
2018-07-31T00:33:57.316Z,1015.46
2018-07-31T00:34:22.898Z,1015.47
2018-07-31T00:34:48.483Z,1015.46
2018-07-31T00:35:14.054Z,1015.45
2018-07-31T00:35:39.633Z,1015.45
2018-07-31T00:36:05.219Z,1015.44
2018-07-31T00:36:30.788Z,1015.45
2018-07-31T00:36:56.351Z,1015.47
2018-07-31T00:37:21.942Z,1015.48
2018-07-31T00:37:47.527Z,1015.44
2018-07-31T00:38:13.106Z,1015.44
2018-07-31T00:38:38.680Z,1015.45
2018-07-31T00:39:04.239Z,1015.46
2018-07-31T00:39:29.792Z,1015.43
2018-07-31T00:39:55.368Z,1015.44
2018-07-31T00:40:20.952Z,1015.45
2018-07-31T00:40:46.525Z,1015.42
2018-07-31T00:41:12.094Z,1015.41
2018-07-31T00:41:37.690Z,1015.44
2018-07-31T00:42:03.292Z,1015.41
2018-07-31T00:42:28.874Z,1015.42
2018-07-31T00:42:54.454Z,1015.4
2018-07-31T00:43:20.029Z,1015.4
2018-07-31T00:43:45.606Z,1015.41
2018-07-31T00:44:11.170Z,1015.42
2018-07-31T00:44:36.738Z,1015.44
2018-07-31T00:45:02.314Z,1015.41
2018-07-31T00:45:27.886Z,1015.4
2018-07-31T00:45:53.466Z,1015.39
2018-07-31T00:46:19.057Z,1015.39
2018-07-31T00:46:44.620Z,1015.4
2018-07-31T00:47:10.190Z,1015.4
2018-07-31T00:47:35.771Z,1015.4
2018-07-31T00:48:01.342Z,1015.39
2018-07-31T00:48:26.909Z,1015.36
2018-07-31T00:48:52.467Z,1015.33
2018-07-31T00:49:18.032Z,1015.35
2018-07-31T00:49:43.612Z,1015.34
2018-07-31T00:50:09.188Z,1015.38
2018-07-31T00:50:34.771Z,1015.34
2018-07-31T00:51:00.342Z,1015.33
2018-07-31T00:51:25.912Z,1015.36
2018-07-31T00:51:51.489Z,1015.37
2018-07-31T00:52:17.055Z,1015.35
2018-07-31T00:52:42.626Z,1015.35
2018-07-31T00:53:08.192Z,1015.36
2018-07-31T00:53:33.773Z,1015.4
2018-07-31T00:53:59.352Z,1015.36
2018-07-31T00:54:24.926Z,1015.36
2018-07-31T00:54:50.486Z,1015.35
2018-07-31T00:55:16.054Z,1015.34
2018-07-31T00:55:41.622Z,1015.36
2018-07-31T00:56:07.200Z,1015.33
2018-07-31T00:56:32.794Z,1015.39
2018-07-31T00:56:58.369Z,1015.38
2018-07-31T00:57:23.954Z,1015.37
2018-07-31T00:57:49.544Z,1015.35
2018-07-31T00:58:15.130Z,1015.34
2018-07-31T00:58:40.714Z,1015.37
2018-07-31T00:59:06.283Z,1015.34
2018-07-31T00:59:31.897Z,1015.41
2018-07-31T00:59:57.466Z,1015.37
2018-07-31T01:00:23.047Z,1015.35
2018-07-31T01:00:48.628Z,1015.37
2018-07-31T01:01:14.198Z,1015.37
2018-07-31T01:01:39.784Z,1015.37
2018-07-31T01:02:05.357Z,1015.39
2018-07-31T01:02:30.928Z,1015.34
2018-07-31T01:02:56.508Z,1015.35
2018-07-31T01:03:22.072Z,1015.38
2018-07-31T01:03:47.679Z,1015.39
2018-07-31T01:04:13.268Z,1015.38
2018-07-31T01:04:38.848Z,1015.4
2018-07-31T01:05:04.428Z,1015.42
2018-07-31T01:05:30.010Z,1015.37
2018-07-31T01:05:55.598Z,1015.41
2018-07-31T01:06:21.177Z,1015.4
2018-07-31T01:06:46.751Z,1015.4
2018-07-31T01:07:12.328Z,1015.43
2018-07-31T01:07:37.896Z,1015.45
2018-07-31T01:08:03.466Z,1015.44
2018-07-31T01:08:29.037Z,1015.45
2018-07-31T01:08:54.640Z,1015.43
2018-07-31T01:09:20.196Z,1015.42
2018-07-31T01:09:45.765Z,1015.4
2018-07-31T01:10:11.329Z,1015.36
2018-07-31T01:10:36.909Z,1015.39
2018-07-31T01:11:02.495Z,1015.38
2018-07-31T01:11:28.072Z,1015.37
2018-07-31T01:11:53.653Z,1015.35
2018-07-31T01:12:19.229Z,1015.35
2018-07-31T01:12:44.816Z,1015.36
2018-07-31T01:13:10.402Z,1015.34
2018-07-31T01:13:35.970Z,1015.31
2018-07-31T01:14:01.541Z,1015.35
2018-07-31T01:14:27.112Z,1015.34
2018-07-31T01:14:52.678Z,1015.32
2018-07-31T01:15:18.240Z,1015.32
2018-07-31T01:15:43.818Z,1015.35
2018-07-31T01:16:09.397Z,1015.34
2018-07-31T01:16:34.987Z,1015.33
2018-07-31T01:17:00.538Z,1015.35
2018-07-31T01:17:26.099Z,1015.35
2018-07-31T01:17:51.685Z,1015.31
2018-07-31T01:18:17.254Z,1015.29
2018-07-31T01:18:42.825Z,1015.35
2018-07-31T01:19:08.389Z,1015.28
2018-07-31T01:19:33.954Z,1015.34
2018-07-31T01:19:59.544Z,1015.29
2018-07-31T01:20:25.100Z,1015.32
2018-07-31T01:20:50.688Z,1015.32
2018-07-31T01:21:16.253Z,1015.31
2018-07-31T01:21:41.807Z,1015.27
2018-07-31T01:22:07.380Z,1015.29
2018-07-31T01:22:32.965Z,1015.33
2018-07-31T01:22:58.589Z,1015.26
2018-07-31T01:23:24.173Z,1015.29
2018-07-31T01:23:49.740Z,1015.28
2018-07-31T01:24:15.312Z,1015.3
2018-07-31T01:24:40.900Z,1015.27
2018-07-31T01:25:06.483Z,1015.29
2018-07-31T01:25:32.068Z,1015.25
2018-07-31T01:25:57.641Z,1015.26
2018-07-31T01:26:23.215Z,1015.26
2018-07-31T01:26:48.803Z,1015.28
2018-07-31T01:27:14.377Z,1015.28
2018-07-31T01:27:39.946Z,1015.27
2018-07-31T01:28:05.514Z,1015.24
2018-07-31T01:28:31.096Z,1015.26
2018-07-31T01:28:56.679Z,1015.29
2018-07-31T01:29:22.265Z,1015.25
2018-07-31T01:29:47.831Z,1015.29
2018-07-31T01:30:13.412Z,1015.26
2018-07-31T01:30:38.985Z,1015.28
2018-07-31T01:31:04.564Z,1015.29
2018-07-31T01:31:30.150Z,1015.29
2018-07-31T01:31:55.712Z,1015.3
2018-07-31T01:32:21.286Z,1015.26
2018-07-31T01:32:46.848Z,1015.24
2018-07-31T01:33:12.411Z,1015.27
2018-07-31T01:33:38.014Z,1015.26
2018-07-31T01:34:03.583Z,1015.24
2018-07-31T01:34:29.167Z,1015.26
2018-07-31T01:34:54.735Z,1015.25
2018-07-31T01:35:20.287Z,1015.26
2018-07-31T01:35:45.928Z,1015.25
2018-07-31T01:36:11.491Z,1015.26
2018-07-31T01:36:37.070Z,1015.27
2018-07-31T01:37:02.644Z,1015.21
2018-07-31T01:37:28.225Z,1015.23
2018-07-31T01:37:53.806Z,1015.25
2018-07-31T01:38:19.397Z,1015.23
2018-07-31T01:38:44.968Z,1015.23
2018-07-31T01:39:10.539Z,1015.23
2018-07-31T01:39:36.109Z,1015.21
2018-07-31T01:40:01.687Z,1015.2
2018-07-31T01:40:27.261Z,1015.2
2018-07-31T01:40:52.825Z,1015.2
2018-07-31T01:41:18.398Z,1015.21
2018-07-31T01:41:43.972Z,1015.2
2018-07-31T01:42:09.554Z,1015.18
2018-07-31T01:42:35.136Z,1015.16
2018-07-31T01:43:00.695Z,1015.15
2018-07-31T01:43:26.280Z,1015.17
2018-07-31T01:43:51.853Z,1015.15
2018-07-31T01:44:17.422Z,1015.15
2018-07-31T01:44:42.985Z,1015.15
2018-07-31T01:45:08.578Z,1015.12
2018-07-31T01:45:34.146Z,1015.15
2018-07-31T01:45:59.761Z,1015.12
2018-07-31T01:46:25.281Z,1015.1
2018-07-31T01:46:50.867Z,1015.11
2018-07-31T01:47:16.454Z,1015.13
2018-07-31T01:47:42.013Z,1015.1
2018-07-31T01:48:07.579Z,1015.11
2018-07-31T01:48:33.176Z,1015.12
2018-07-31T01:48:58.775Z,1015.14
2018-07-31T01:49:24.340Z,1015.11
2018-07-31T01:49:49.911Z,1015.08
2018-07-31T01:50:15.486Z,1015.09
2018-07-31T01:50:41.065Z,1015.08
2018-07-31T01:51:06.626Z,1015.09
2018-07-31T01:51:32.196Z,1015.06
2018-07-31T01:51:57.763Z,1015.08
2018-07-31T01:52:23.386Z,1015.07
2018-07-31T01:52:48.934Z,1015.05
2018-07-31T01:53:14.501Z,1015.02
2018-07-31T01:53:40.074Z,1015.09
2018-07-31T01:54:05.660Z,1015.04
2018-07-31T01:54:31.213Z,1015.05
2018-07-31T01:54:56.794Z,1015.06
2018-07-31T01:55:22.372Z,1015.03
2018-07-31T01:55:47.957Z,1015.02
2018-07-31T01:56:13.539Z,1015.02
2018-07-31T01:56:39.115Z,1014.99
2018-07-31T01:57:04.690Z,1015.01
2018-07-31T01:57:30.261Z,1015.04
2018-07-31T01:57:55.851Z,1015.02
2018-07-31T01:58:21.443Z,1015
2018-07-31T01:58:47.024Z,1015.08
2018-07-31T01:59:12.593Z,1015.03
2018-07-31T01:59:38.206Z,1015
2018-07-31T02:00:03.742Z,1015.03
2018-07-31T02:00:29.300Z,1015.01
2018-07-31T02:00:54.887Z,1015.04
2018-07-31T02:01:20.461Z,1015
2018-07-31T02:01:46.058Z,1015.01
2018-07-31T02:02:11.612Z,1014.98
2018-07-31T02:02:37.185Z,1015.02
2018-07-31T02:03:02.755Z,1015.01
2018-07-31T02:03:28.316Z,1015.03
2018-07-31T02:03:53.907Z,1015.01
2018-07-31T02:04:19.473Z,1014.98
2018-07-31T02:04:45.060Z,1015.01
2018-07-31T02:05:10.632Z,1015.01
2018-07-31T02:05:36.206Z,1015.01
2018-07-31T02:06:01.795Z,1014.97
2018-07-31T02:06:27.369Z,1015
2018-07-31T02:06:52.939Z,1014.99
2018-07-31T02:07:18.506Z,1015.01
2018-07-31T02:07:44.073Z,1015.03
2018-07-31T02:08:09.641Z,1014.98
2018-07-31T02:08:35.214Z,1014.96
2018-07-31T02:09:00.791Z,1014.96
2018-07-31T02:09:26.362Z,1015
2018-07-31T02:09:51.931Z,1014.92
2018-07-31T02:10:17.490Z,1014.93
2018-07-31T02:10:43.065Z,1014.94
2018-07-31T02:11:08.646Z,1014.94
2018-07-31T02:11:34.228Z,1014.91
2018-07-31T02:11:59.789Z,1014.91
2018-07-31T02:12:25.355Z,1014.93
2018-07-31T02:12:50.937Z,1014.92
2018-07-31T02:13:16.510Z,1014.87
2018-07-31T02:13:42.088Z,1014.88
2018-07-31T02:14:07.667Z,1014.83
2018-07-31T02:14:33.245Z,1014.87
2018-07-31T02:14:58.816Z,1014.82
2018-07-31T02:15:24.392Z,1014.86
2018-07-31T02:15:49.963Z,1014.87
2018-07-31T02:16:15.535Z,1014.86
2018-07-31T02:16:41.115Z,1014.83
2018-07-31T02:17:06.683Z,1014.85
2018-07-31T02:17:32.264Z,1014.84
2018-07-31T02:17:57.834Z,1014.84
2018-07-31T02:18:23.416Z,1014.84
2018-07-31T02:18:48.975Z,1014.82
2018-07-31T02:19:14.558Z,1014.79
2018-07-31T02:19:40.145Z,1014.81
2018-07-31T02:20:05.723Z,1014.79
2018-07-31T02:20:31.315Z,1014.84
2018-07-31T02:20:56.893Z,1014.82
2018-07-31T02:21:22.479Z,1014.77
2018-07-31T02:21:48.036Z,1014.77
2018-07-31T02:22:13.623Z,1014.83
2018-07-31T02:22:39.197Z,1014.81
2018-07-31T02:23:04.777Z,1014.83
2018-07-31T02:23:30.348Z,1014.79
2018-07-31T02:23:55.906Z,1014.85
2018-07-31T02:24:21.466Z,1014.81
2018-07-31T02:24:47.030Z,1014.82
2018-07-31T02:25:12.608Z,1014.81
2018-07-31T02:25:38.156Z,1014.81
2018-07-31T02:26:03.731Z,1014.81
2018-07-31T02:26:29.303Z,1014.82
2018-07-31T02:26:54.874Z,1014.8
2018-07-31T02:27:20.456Z,1014.84
2018-07-31T02:27:46.019Z,1014.82
2018-07-31T02:28:11.677Z,1014.87
2018-07-31T02:28:37.245Z,1014.83
2018-07-31T02:29:02.752Z,1014.78
2018-07-31T02:29:28.324Z,1014.83
2018-07-31T02:29:53.901Z,1014.81
2018-07-31T02:30:19.478Z,1014.83
2018-07-31T02:30:45.054Z,1014.8
2018-07-31T02:31:10.627Z,1014.77
2018-07-31T02:31:36.187Z,1014.73
2018-07-31T02:32:01.760Z,1014.78
2018-07-31T02:32:27.335Z,1014.77
2018-07-31T02:32:52.911Z,1014.72
2018-07-31T02:33:18.476Z,1014.79
2018-07-31T02:33:44.061Z,1014.76
2018-07-31T02:34:09.651Z,1014.74
2018-07-31T02:34:35.224Z,1014.73
2018-07-31T02:35:00.788Z,1014.74
2018-07-31T02:35:26.371Z,1014.75
2018-07-31T02:35:51.952Z,1014.72
2018-07-31T02:36:17.538Z,1014.74
2018-07-31T02:36:43.098Z,1014.72
2018-07-31T02:37:08.697Z,1014.7
2018-07-31T02:37:34.271Z,1014.77
2018-07-31T02:37:59.840Z,1014.73
2018-07-31T02:38:25.417Z,1014.74
2018-07-31T02:38:50.980Z,1014.73
2018-07-31T02:39:16.562Z,1014.73
2018-07-31T02:39:42.142Z,1014.73
2018-07-31T02:40:07.691Z,1014.72
2018-07-31T02:40:33.261Z,1014.71
2018-07-31T02:40:58.823Z,1014.72
2018-07-31T02:41:24.411Z,1014.72
2018-07-31T02:41:49.931Z,1014.72
2018-07-31T02:42:15.518Z,1014.76
2018-07-31T02:42:41.093Z,1014.7
2018-07-31T02:43:06.665Z,1014.75
2018-07-31T02:43:32.243Z,1014.74
2018-07-31T02:43:57.799Z,1014.73
2018-07-31T02:44:23.397Z,1014.74
2018-07-31T02:44:48.958Z,1014.71
2018-07-31T02:45:14.529Z,1014.74
2018-07-31T02:45:40.113Z,1014.74
2018-07-31T02:46:05.683Z,1014.76
2018-07-31T02:46:31.262Z,1014.72
2018-07-31T02:46:56.907Z,1014.73
2018-07-31T02:47:22.399Z,1014.74
2018-07-31T02:47:47.973Z,1014.73
2018-07-31T02:48:13.557Z,1014.72
2018-07-31T02:48:39.172Z,1014.72
2018-07-31T02:49:04.753Z,1014.75
2018-07-31T02:49:30.337Z,1014.73
2018-07-31T02:49:55.904Z,1014.74
2018-07-31T02:50:21.481Z,1014.75
2018-07-31T02:50:47.045Z,1014.74
2018-07-31T02:51:12.628Z,1014.73
2018-07-31T02:51:38.197Z,1014.73
2018-07-31T02:52:03.791Z,1014.73
2018-07-31T02:52:29.361Z,1014.75
2018-07-31T02:52:54.936Z,1014.71
2018-07-31T02:53:20.499Z,1014.73
2018-07-31T02:53:46.072Z,1014.73
2018-07-31T02:54:11.638Z,1014.77
2018-07-31T02:54:37.238Z,1014.74
2018-07-31T02:55:02.797Z,1014.78
2018-07-31T02:55:28.369Z,1014.78
2018-07-31T02:55:53.955Z,1014.81
2018-07-31T02:56:19.532Z,1014.82
2018-07-31T02:56:45.108Z,1014.79
2018-07-31T02:57:10.680Z,1014.8
2018-07-31T02:57:36.238Z,1014.81
2018-07-31T02:58:01.885Z,1014.79
2018-07-31T02:58:27.412Z,1014.83
2018-07-31T02:58:52.984Z,1014.82
2018-07-31T02:59:18.586Z,1014.81
2018-07-31T02:59:44.157Z,1014.82
2018-07-31T03:00:09.728Z,1014.8
2018-07-31T03:00:35.300Z,1014.84
2018-07-31T03:01:00.896Z,1014.84
2018-07-31T03:01:26.459Z,1014.81
2018-07-31T03:01:52.034Z,1014.8
2018-07-31T03:02:17.598Z,1014.85
2018-07-31T03:02:43.173Z,1014.81
2018-07-31T03:03:08.749Z,1014.84
2018-07-31T03:03:34.326Z,1014.87
2018-07-31T03:03:59.893Z,1014.83
2018-07-31T03:04:25.469Z,1014.83
2018-07-31T03:04:51.045Z,1014.82
2018-07-31T03:05:16.620Z,1014.84
2018-07-31T03:05:42.205Z,1014.8
2018-07-31T03:06:07.766Z,1014.84
2018-07-31T03:06:33.356Z,1014.83
2018-07-31T03:06:58.931Z,1014.81
2018-07-31T03:07:24.509Z,1014.85
2018-07-31T03:07:50.071Z,1014.83
2018-07-31T03:08:15.728Z,1014.86
2018-07-31T03:08:41.233Z,1014.87
2018-07-31T03:09:06.816Z,1014.86
2018-07-31T03:09:32.360Z,1014.91
2018-07-31T03:09:57.967Z,1014.87
2018-07-31T03:10:23.555Z,1014.89
2018-07-31T03:10:49.118Z,1014.88
2018-07-31T03:11:14.686Z,1014.93
2018-07-31T03:11:40.264Z,1014.86
2018-07-31T03:12:05.883Z,1014.91
2018-07-31T03:12:31.465Z,1014.9
2018-07-31T03:12:57.049Z,1014.89
2018-07-31T03:13:22.631Z,1014.89
2018-07-31T03:13:48.207Z,1014.88
2018-07-31T03:14:13.792Z,1014.89
2018-07-31T03:14:39.361Z,1014.87
2018-07-31T03:15:04.931Z,1014.87
2018-07-31T03:15:30.519Z,1014.86
2018-07-31T03:15:56.089Z,1014.87
2018-07-31T03:16:21.675Z,1014.87
2018-07-31T03:16:47.231Z,1014.85
2018-07-31T03:17:12.822Z,1014.83
2018-07-31T03:17:38.409Z,1014.89
2018-07-31T03:18:03.978Z,1014.83
2018-07-31T03:18:29.545Z,1014.84
2018-07-31T03:18:55.131Z,1014.85
2018-07-31T03:19:20.691Z,1014.85
2018-07-31T03:19:46.261Z,1014.88
2018-07-31T03:20:11.828Z,1014.85
2018-07-31T03:20:37.406Z,1014.84
2018-07-31T03:21:02.975Z,1014.88
2018-07-31T03:21:28.537Z,1014.92
2018-07-31T03:21:54.092Z,1014.98
2018-07-31T03:22:19.666Z,1014.98
2018-07-31T03:22:45.258Z,1015.06
2018-07-31T03:23:10.827Z,1015.14
2018-07-31T03:23:36.403Z,1015.09
2018-07-31T03:24:01.964Z,1015.13
2018-07-31T03:24:27.537Z,1015.16
2018-07-31T03:24:53.118Z,1015.16
2018-07-31T03:25:18.749Z,1015.18
2018-07-31T03:25:44.326Z,1015.15
2018-07-31T03:26:09.903Z,1015.15
2018-07-31T03:26:35.469Z,1015.1
2018-07-31T03:27:01.043Z,1015.11
2018-07-31T03:27:26.625Z,1015.1
2018-07-31T03:27:52.204Z,1015.04
2018-07-31T03:28:17.919Z,1015.02
2018-07-31T03:28:43.355Z,1014.98
2018-07-31T03:29:08.925Z,1014.92
2018-07-31T03:29:34.497Z,1014.91
2018-07-31T03:30:00.079Z,1014.96
2018-07-31T03:30:25.632Z,1015.01
2018-07-31T03:30:51.224Z,1015.04
2018-07-31T03:31:16.803Z,1015.11
2018-07-31T03:31:42.367Z,1015.13
2018-07-31T03:32:07.918Z,1015.17
2018-07-31T03:32:33.497Z,1015.2
2018-07-31T03:32:59.058Z,1015.21
2018-07-31T03:33:24.633Z,1015.2
2018-07-31T03:33:50.217Z,1015.17
2018-07-31T03:34:15.789Z,1015.16
2018-07-31T03:34:41.367Z,1015.11
2018-07-31T03:35:06.967Z,1015.11
2018-07-31T03:35:32.537Z,1015.14
2018-07-31T03:35:58.103Z,1015.16
2018-07-31T03:36:23.679Z,1015.16
2018-07-31T03:36:49.247Z,1015.23
2018-07-31T03:37:14.835Z,1015.19
2018-07-31T03:37:40.423Z,1015.2
2018-07-31T03:38:06.022Z,1015.23
2018-07-31T03:38:31.594Z,1015.16
2018-07-31T03:38:57.191Z,1015.16
2018-07-31T03:39:22.752Z,1015.11
2018-07-31T03:39:48.327Z,1015.07
2018-07-31T03:40:13.913Z,1015.07
2018-07-31T03:40:39.493Z,1015.1
2018-07-31T03:41:05.064Z,1015.15
2018-07-31T03:41:30.636Z,1015.18
2018-07-31T03:41:56.207Z,1015.22
2018-07-31T03:42:21.795Z,1015.27
2018-07-31T03:42:47.406Z,1015.28
2018-07-31T03:43:12.993Z,1015.28
2018-07-31T03:43:38.559Z,1015.26
2018-07-31T03:44:04.135Z,1015.24
2018-07-31T03:44:29.715Z,1015.26
2018-07-31T03:44:55.285Z,1015.23
2018-07-31T03:45:20.862Z,1015.23
2018-07-31T03:45:46.426Z,1015.23
2018-07-31T03:46:11.992Z,1015.18
2018-07-31T03:46:37.569Z,1015.15
2018-07-31T03:47:03.143Z,1015.1
2018-07-31T03:47:28.713Z,1015.14
2018-07-31T03:47:54.298Z,1015.14
2018-07-31T03:48:19.892Z,1015.12
2018-07-31T03:48:45.462Z,1015.14
2018-07-31T03:49:11.026Z,1015.21
2018-07-31T03:49:36.599Z,1015.18
2018-07-31T03:50:02.239Z,1015.22
2018-07-31T03:50:27.750Z,1015.24
2018-07-31T03:50:53.331Z,1015.26
2018-07-31T03:51:18.933Z,1015.19
2018-07-31T03:51:44.511Z,1015.1
2018-07-31T03:52:10.099Z,1015.09
2018-07-31T03:52:35.665Z,1015.06
2018-07-31T03:53:01.236Z,1015.07
2018-07-31T03:53:26.810Z,1015.08
2018-07-31T03:53:52.382Z,1015.08
2018-07-31T03:54:17.966Z,1015.08
2018-07-31T03:54:43.532Z,1015.16
2018-07-31T03:55:09.110Z,1015.16
2018-07-31T03:55:34.739Z,1015.19
2018-07-31T03:56:00.277Z,1015.21
2018-07-31T03:56:25.924Z,1015.21
2018-07-31T03:56:51.437Z,1015.19
2018-07-31T03:57:17.009Z,1015.18
2018-07-31T03:57:42.567Z,1015.16
2018-07-31T03:58:08.133Z,1015.13
2018-07-31T03:58:33.710Z,1015.16
2018-07-31T03:58:59.286Z,1015.12
2018-07-31T03:59:24.866Z,1015.18
2018-07-31T03:59:50.450Z,1015.11
2018-07-31T04:00:16.022Z,1015.17
2018-07-31T04:00:41.611Z,1015.16
2018-07-31T04:01:07.185Z,1015.15
2018-07-31T04:01:32.766Z,1015.19
2018-07-31T04:01:58.333Z,1015.12
2018-07-31T04:02:23.908Z,1015.16
2018-07-31T04:02:49.480Z,1015.15
2018-07-31T04:03:15.046Z,1015.15
2018-07-31T04:03:40.617Z,1015.17
2018-07-31T04:04:06.170Z,1015.19
2018-07-31T04:04:31.775Z,1015.17
2018-07-31T04:04:57.304Z,1015.2
2018-07-31T04:05:22.888Z,1015.2
2018-07-31T04:05:48.439Z,1015.23
2018-07-31T04:06:14.027Z,1015.23
2018-07-31T04:06:39.603Z,1015.13
2018-07-31T04:07:05.180Z,1015.18
2018-07-31T04:07:30.763Z,1015.17
2018-07-31T04:07:56.350Z,1015.2
2018-07-31T04:08:21.912Z,1015.18
2018-07-31T04:08:47.498Z,1015.19
2018-07-31T04:09:13.070Z,1015.24
2018-07-31T04:09:38.636Z,1015.19
2018-07-31T04:10:04.211Z,1015.21
2018-07-31T04:10:29.786Z,1015.22
2018-07-31T04:10:55.360Z,1015.26
2018-07-31T04:11:20.924Z,1015.28
2018-07-31T04:11:46.494Z,1015.27
2018-07-31T04:12:12.075Z,1015.31
2018-07-31T04:12:37.669Z,1015.29
2018-07-31T04:13:03.214Z,1015.27
2018-07-31T04:13:28.795Z,1015.28
2018-07-31T04:13:54.364Z,1015.29
2018-07-31T04:14:19.950Z,1015.28
2018-07-31T04:14:45.523Z,1015.27
2018-07-31T04:15:11.107Z,1015.25
2018-07-31T04:15:36.682Z,1015.27
2018-07-31T04:16:02.245Z,1015.29
2018-07-31T04:16:27.821Z,1015.28
2018-07-31T04:16:53.439Z,1015.32
2018-07-31T04:17:18.968Z,1015.28
2018-07-31T04:17:44.535Z,1015.3
2018-07-31T04:18:10.114Z,1015.28
2018-07-31T04:18:35.682Z,1015.32
2018-07-31T04:19:01.263Z,1015.28
2018-07-31T04:19:26.839Z,1015.31
2018-07-31T04:19:52.407Z,1015.26
2018-07-31T04:20:17.973Z,1015.21
2018-07-31T04:20:43.564Z,1015.26
2018-07-31T04:21:09.148Z,1015.26
2018-07-31T04:21:34.695Z,1015.28
2018-07-31T04:22:00.277Z,1015.25
2018-07-31T04:22:25.867Z,1015.23
2018-07-31T04:22:51.435Z,1015.27
2018-07-31T04:23:17.012Z,1015.25
2018-07-31T04:23:42.589Z,1015.26
2018-07-31T04:24:08.163Z,1015.23
2018-07-31T04:24:33.747Z,1015.24
2018-07-31T04:24:59.333Z,1015.2
2018-07-31T04:25:24.892Z,1015.23
2018-07-31T04:25:50.475Z,1015.24
2018-07-31T04:26:16.082Z,1015.2
2018-07-31T04:26:41.658Z,1015.23
2018-07-31T04:27:07.240Z,1015.19
2018-07-31T04:27:32.819Z,1015.23
2018-07-31T04:27:58.385Z,1015.22
2018-07-31T04:28:23.969Z,1015.21
2018-07-31T04:28:49.556Z,1015.25
2018-07-31T04:29:15.131Z,1015.25
2018-07-31T04:29:40.698Z,1015.21
2018-07-31T04:30:06.288Z,1015.19
2018-07-31T04:30:31.857Z,1015.18
2018-07-31T04:30:57.417Z,1015.19
2018-07-31T04:31:22.990Z,1015.16
2018-07-31T04:31:48.559Z,1015.18
2018-07-31T04:32:14.128Z,1015.16
2018-07-31T04:32:39.713Z,1015.16
2018-07-31T04:33:05.294Z,1015.17
2018-07-31T04:33:30.876Z,1015.18
2018-07-31T04:33:56.452Z,1015.19
2018-07-31T04:34:22.037Z,1015.16
2018-07-31T04:34:47.605Z,1015.18
2018-07-31T04:35:13.178Z,1015.16
2018-07-31T04:35:38.760Z,1015.16
2018-07-31T04:36:04.350Z,1015.16
2018-07-31T04:36:29.923Z,1015.18
2018-07-31T04:36:55.485Z,1015.18
2018-07-31T04:37:21.054Z,1015.16
2018-07-31T04:37:46.633Z,1015.17
2018-07-31T04:38:12.212Z,1015.18
2018-07-31T04:38:37.791Z,1015.14
2018-07-31T04:39:03.357Z,1015.15
2018-07-31T04:39:28.947Z,1015.13
2018-07-31T04:39:54.523Z,1015.14
2018-07-31T04:40:20.098Z,1015.13
2018-07-31T04:40:45.677Z,1015.11
2018-07-31T04:41:11.297Z,1015.17
2018-07-31T04:41:36.841Z,1015.15
2018-07-31T04:42:02.411Z,1015.14
2018-07-31T04:42:28.004Z,1015.12
2018-07-31T04:42:53.583Z,1015.17
2018-07-31T04:43:19.161Z,1015.19
2018-07-31T04:43:44.722Z,1015.17
2018-07-31T04:44:10.318Z,1015.19
2018-07-31T04:44:35.907Z,1015.19
2018-07-31T04:45:01.483Z,1015.18
2018-07-31T04:45:27.060Z,1015.19
2018-07-31T04:45:52.644Z,1015.21
2018-07-31T04:46:18.220Z,1015.19
2018-07-31T04:46:43.787Z,1015.22
2018-07-31T04:47:09.363Z,1015.21
2018-07-31T04:47:34.928Z,1015.21
2018-07-31T04:48:00.482Z,1015.21
2018-07-31T04:48:26.056Z,1015.24
2018-07-31T04:48:51.646Z,1015.25
2018-07-31T04:49:17.214Z,1015.24
2018-07-31T04:49:42.795Z,1015.25
2018-07-31T04:50:08.382Z,1015.3
2018-07-31T04:50:33.945Z,1015.27
2018-07-31T04:50:59.512Z,1015.28
2018-07-31T04:51:25.077Z,1015.26
2018-07-31T04:51:50.648Z,1015.31
2018-07-31T04:52:16.208Z,1015.26
2018-07-31T04:52:41.781Z,1015.28
2018-07-31T04:53:07.354Z,1015.23
2018-07-31T04:53:32.924Z,1015.27
2018-07-31T04:53:58.484Z,1015.26
2018-07-31T04:54:24.067Z,1015.23
2018-07-31T04:54:49.639Z,1015.24
2018-07-31T04:55:15.206Z,1015.28
2018-07-31T04:55:40.771Z,1015.27
2018-07-31T04:56:06.357Z,1015.29
2018-07-31T04:56:31.928Z,1015.29
2018-07-31T04:56:57.496Z,1015.27
2018-07-31T04:57:23.073Z,1015.3
2018-07-31T04:57:48.644Z,1015.3
2018-07-31T04:58:14.223Z,1015.32
2018-07-31T04:58:39.805Z,1015.31
2018-07-31T04:59:05.376Z,1015.3
2018-07-31T04:59:30.944Z,1015.33
2018-07-31T04:59:56.529Z,1015.31
2018-07-31T05:00:22.089Z,1015.3
2018-07-31T05:00:47.658Z,1015.32
2018-07-31T05:01:13.240Z,1015.31
2018-07-31T05:01:38.805Z,1015.27
2018-07-31T05:02:04.389Z,1015.29
2018-07-31T05:02:29.964Z,1015.28
2018-07-31T05:02:55.548Z,1015.28
2018-07-31T05:03:21.126Z,1015.3
2018-07-31T05:03:46.691Z,1015.31
2018-07-31T05:04:12.292Z,1015.25
2018-07-31T05:04:37.878Z,1015.3
2018-07-31T05:05:03.458Z,1015.31
2018-07-31T05:05:29.057Z,1015.27
2018-07-31T05:05:54.654Z,1015.28
2018-07-31T05:06:20.226Z,1015.31
2018-07-31T05:06:45.788Z,1015.3
2018-07-31T05:07:11.370Z,1015.3
2018-07-31T05:07:36.944Z,1015.31
2018-07-31T05:08:02.603Z,1015.31
2018-07-31T05:08:28.154Z,1015.32
2018-07-31T05:08:53.754Z,1015.33
2018-07-31T05:09:19.330Z,1015.3
2018-07-31T05:09:44.923Z,1015.32
2018-07-31T05:10:10.490Z,1015.27
2018-07-31T05:10:36.066Z,1015.33